Time;durP1;ratioP1;P1;durP2;ratioP2;P2;SDS_P1;SDS_P2;PMS_P1;PMS_P2;Temp;Humidity;BMP_temperature;BMP_pressure;BME280_temperature;BME280_humidity;BME280_pressure;Samples;Min_cycle;Max_cycle;Signal;HPM_P1;HPM_P2
2021/12/24 00:00:33;;;;;;;23.43;14.63;;;8.00;99.90;;;;;;5099509;28;20185;-87
2021/12/24 00:02:59;;;;;;;23.07;14.03;;;8.00;99.90;;;;;;5099396;28;20182;-86
2021/12/24 00:05:25;;;;;;;24.33;13.60;;;9.20;99.90;;;;;;5118142;28;20191;-86
2021/12/24 00:07:51;;;;;;;17.17;10.57;;;8.00;99.90;;;;;;5098955;28;20294;-86
2021/12/24 00:10:18;;;;;;;18.77;11.47;;;8.00;99.90;;;;;;5099172;28;20552;-87
2021/12/24 00:12:55;;;;;;;24.03;15.20;;;8.00;99.90;;;;;;5099393;28;20206;-88
2021/12/24 00:15:48;;;;;;;26.03;15.63;;;8.00;99.90;;;;;;5118013;28;20154;-87
2021/12/24 00:18:24;;;;;;;22.60;14.63;;;8.00;99.90;;;;;;5117083;28;20578;-87
2021/12/24 00:37:08;;;;;;;19.83;13.23;;;8.00;99.90;;;;;;5117341;28;20211;-87
2021/12/24 00:39:38;;;;;;;21.73;11.63;;;8.00;99.90;;;;;;5116856;28;20174;-88
2021/12/24 00:42:04;;;;;;;18.57;11.97;;;8.00;99.90;;;;;;5098333;28;20177;-87
2021/12/24 00:44:30;;;;;;;21.30;13.87;;;8.00;99.90;;;;;;5099054;28;20184;-88
2021/12/24 00:46:55;;;;;;;22.93;13.50;;;8.00;99.90;;;;;;5098309;28;20188;-88
2021/12/24 00:49:21;;;;;;;19.83;12.37;;;8.00;99.90;;;;;;5098700;28;20190;-88
2021/12/24 00:52:07;;;;;;;24.03;13.20;;;8.00;99.90;;;;;;5098244;28;20315;-87
2021/12/24 00:57:18;;;;;;;19.80;12.07;;;8.00;99.90;;;;;;5115652;28;20275;-87
2021/12/24 00:59:44;;;;;;;20.77;13.13;;;8.00;99.90;;;;;;5098265;28;20625;-89
2021/12/24 01:02:09;;;;;;;15.90;10.20;;;8.10;99.90;;;;;;5116863;28;20185;-86
2021/12/24 01:04:35;;;;;;;21.83;13.20;;;8.00;99.90;;;;;;5098244;28;20182;-87
2021/12/24 01:07:01;;;;;;;22.07;14.30;;;8.10;99.90;;;;;;5116040;28;20211;-86
2021/12/24 01:09:26;;;;;;;18.27;11.77;;;8.10;99.90;;;;;;5098055;28;20253;-88
2021/12/24 01:11:52;;;;;;;18.67;11.30;;;8.90;99.90;;;;;;5116263;28;20251;-88
2021/12/24 01:14:20;;;;;;;19.60;12.27;;;8.10;99.90;;;;;;5097955;28;20181;-88
2021/12/24 01:16:55;;;;;;;19.63;11.30;;;8.10;99.90;;;;;;5116149;28;20181;-86
2021/12/24 01:19:24;;;;;;;21.07;13.87;;;8.10;99.90;;;;;;5116200;28;20158;-88
2021/12/24 01:24:35;;;;;;;20.03;12.07;;;8.10;99.90;;;;;;5116466;28;20747;-88
2021/12/24 01:27:51;;;;;;;21.97;11.77;;;8.10;99.90;;;;;;5097785;28;20206;-86
2021/12/24 01:37:54;;;;;;;19.30;11.00;;;8.20;99.90;;;;;;5116503;28;20246;-87
2021/12/24 01:40:39;;;;;;;21.60;12.90;;;8.10;99.90;;;;;;5116616;28;20522;-89
2021/12/24 01:43:05;;;;;;;21.10;12.27;;;8.20;99.90;;;;;;5116336;28;20169;-88
2021/12/24 01:45:33;;;;;;;18.53;11.80;;;8.10;99.90;;;;;;5115957;28;20230;-88
2021/12/24 01:48:09;;;;;;;21.60;13.40;;;8.30;99.90;;;;;;5097650;28;20255;-86
2021/12/24 01:50:37;;;;;;;14.10;8.83;;;8.30;99.90;;;;;;5098043;28;20177;-86
2021/12/24 01:53:05;;;;;;;21.17;11.83;;;8.20;99.90;;;;;;5097678;28;20202;-87
2021/12/24 01:55:31;;;;;;;26.77;12.50;;;8.30;99.90;;;;;;5098073;28;20178;-87
2021/12/24 01:57:57;;;;;;;21.73;11.80;;;8.30;99.90;;;;;;5115776;28;20216;-87
2021/12/24 02:00:26;;;;;;;17.00;10.57;;;8.40;99.90;;;;;;5097764;28;20196;-89
2021/12/24 02:02:52;;;;;;;22.27;12.70;;;8.40;99.90;;;;;;5098081;28;20182;-88
2021/12/24 02:05:18;;;;;;;9.17;5.77;;;8.40;99.90;;;;;;5117668;28;20181;-85
2021/12/24 02:07:45;;;;;;;21.93;11.27;;;8.80;99.90;;;;;;5117589;28;20186;-88
2021/12/24 02:10:13;;;;;;;23.47;13.37;;;8.40;99.90;;;;;;5099478;28;20178;-88
2021/12/24 02:12:39;;;;;;;18.97;10.77;;;8.40;99.90;;;;;;5098835;28;20201;-88
2021/12/24 02:15:11;;;;;;;17.87;10.57;;;8.40;99.90;;;;;;5098992;28;20633;-89
2021/12/24 02:31:19;;;;;;;19.63;12.37;;;9.00;99.90;;;;;;5105462;28;20193;-90
2021/12/24 02:33:45;;;;;;;24.17;13.03;;;8.40;99.90;;;;;;5101054;28;20194;-89
2021/12/24 02:36:11;;;;;;;21.90;11.40;;;8.40;99.90;;;;;;5119579;28;20224;-88
2021/12/24 02:38:38;;;;;;;24.07;11.80;;;8.40;99.90;;;;;;5100813;28;20209;-89
2021/12/24 02:41:05;;;;;;;16.17;9.87;;;8.40;99.90;;;;;;5100510;28;20236;-87
2021/12/24 02:43:31;;;;;;;23.27;12.13;;;8.40;99.90;;;;;;5100962;28;20181;-88
2021/12/24 02:46:05;;;;;;;22.70;11.80;;;8.40;99.90;;;;;;5100918;28;20646;-87
2021/12/24 02:56:24;;;;;;;14.50;10.13;;;8.50;99.90;;;;;;5119366;28;20227;-88
2021/12/24 02:58:49;;;;;;;18.23;11.60;;;8.40;99.90;;;;;;5100179;28;20581;-90
2021/12/24 03:01:19;;;;;;;19.77;12.43;;;8.40;99.90;;;;;;5099783;28;20174;-90
2021/12/24 03:03:48;;;;;;;18.43;10.37;;;8.40;99.90;;;;;;5100011;28;20178;-88
2021/12/24 03:06:15;;;;;;;23.00;12.17;;;9.60;99.90;;;;;;5099927;28;20185;-89
2021/12/24 03:08:41;;;;;;;16.20;8.83;;;8.40;99.90;;;;;;5099262;28;20226;-88
2021/12/24 03:11:06;;;;;;;18.73;10.97;;;8.40;99.90;;;;;;5118716;28;20566;-87
2021/12/24 03:13:33;;;;;;;20.50;11.80;;;8.40;99.90;;;;;;5100243;28;20230;-86
2021/12/24 03:16:00;;;;;;;15.10;9.53;;;8.50;99.90;;;;;;5100471;28;20181;-89
2021/12/24 03:18:31;;;;;;;11.73;7.20;;;8.30;99.90;;;;;;5099575;28;20667;-87
2021/12/24 03:21:09;;;;;;;19.00;10.37;;;8.30;99.90;;;;;;5118083;28;20630;-88
2021/12/24 03:24:33;;;;;;;18.60;10.73;;;9.00;99.90;;;;;;5099849;28;20187;-88
2021/12/24 03:26:21;;;;;;;18.23;11.63;;;8.70;99.90;;;;;;5116384;28;20211;-88
2021/12/24 03:28:46;;;;;;;18.83;11.23;;;8.40;99.90;;;;;;5102721;28;20210;-89
2021/12/24 03:31:12;;;;;;;19.93;10.77;;;8.40;99.90;;;;;;5104969;28;20181;-91
2021/12/24 03:33:38;;;;;;;13.70;8.03;;;9.10;99.90;;;;;;5105165;28;20287;-90
2021/12/24 03:36:05;;;;;;;16.63;10.93;;;6.80;99.90;;;;;;5102579;28;20660;-87
2021/12/24 03:38:32;;;;;;;24.20;12.10;;;8.40;99.90;;;;;;5117737;28;20214;-87
2021/12/24 03:40:57;;;;;;;15.17;9.63;;;8.40;99.90;;;;;;5099496;28;20661;-87
2021/12/24 03:43:23;;;;;;;23.63;11.90;;;9.10;99.90;;;;;;5099735;28;20181;-88
2021/12/24 03:46:00;;;;;;;19.90;10.43;;;8.40;99.90;;;;;;5117643;28;20672;-88
2021/12/24 03:49:17;;;;;;;21.07;11.90;;;8.40;99.90;;;;;;5117903;28;20200;-87
2021/12/24 03:56:30;;;;;;;20.57;12.30;;;8.40;99.90;;;;;;5118541;28;20169;-88
2021/12/24 03:58:55;;;;;;;22.60;11.70;;;8.40;99.90;;;;;;5099711;28;20231;-88
2021/12/24 04:01:21;;;;;;;19.97;10.47;;;8.60;99.90;;;;;;5100185;28;20185;-84
2021/12/24 04:03:46;;;;;;;19.67;10.67;;;8.40;99.90;;;;;;5101556;28;20686;-85
2021/12/24 04:06:12;;;;;;;20.50;10.63;;;8.40;99.90;;;;;;5101498;28;20178;-85
2021/12/24 04:08:38;;;;;;;16.93;11.27;;;8.40;99.90;;;;;;5101712;28;20208;-86
2021/12/24 04:11:04;;;;;;;16.63;9.37;;;8.80;99.90;;;;;;5101109;28;20186;-84
2021/12/24 04:13:31;;;;;;;22.67;10.77;;;8.90;99.90;;;;;;5101144;28;20611;-85
2021/12/24 04:15:58;;;;;;;22.07;12.03;;;8.40;99.90;;;;;;5100645;28;20425;-85
2021/12/24 04:26:29;;;;;;;13.70;8.53;;;8.70;99.90;;;;;;5119168;28;20576;-85
2021/12/24 04:28:54;;;;;;;24.70;11.77;;;8.40;99.90;;;;;;5100678;28;20297;-84
2021/12/24 04:31:26;;;;;;;20.30;10.00;;;8.50;99.90;;;;;;5099698;28;20178;-85
2021/12/24 04:33:57;;;;;;;22.17;11.43;;;9.30;99.90;;;;;;5101009;28;20250;-84
2021/12/24 05:03:14;;;;;;;19.53;10.97;;;8.50;99.90;;;;;;5120172;28;20204;-85
2021/12/24 05:05:53;;;;;;;19.63;11.17;;;8.50;99.90;;;;;;5100933;28;20228;-86
2021/12/24 05:08:24;;;;;;;22.07;8.67;;;8.60;99.90;;;;;;5100554;28;20209;-86
2021/12/24 05:10:51;;;;;;;23.63;13.00;;;8.90;99.90;;;;;;5100871;28;20223;-85
2021/12/24 05:13:20;;;;;;;17.63;11.30;;;8.60;99.90;;;;;;5100692;28;20219;-84
2021/12/24 05:15:50;;;;;;;17.33;10.67;;;8.60;99.90;;;;;;5101340;28;20267;-85
2021/12/24 05:18:31;;;;;;;23.17;12.27;;;9.30;99.90;;;;;;5100484;28;20220;-85
2021/12/24 05:23:41;;;;;;;37.50;13.93;;;8.60;99.90;;;;;;5119215;28;20184;-85
2021/12/24 05:26:07;;;;;;;26.87;11.90;;;9.90;99.90;;;;;;5100232;28;20176;-85
2021/12/24 05:28:33;;;;;;;23.00;12.73;;;8.90;99.90;;;;;;5099889;28;20204;-85
2021/12/24 05:30:58;;;;;;;21.63;10.40;;;8.50;99.90;;;;;;5100319;28;20184;-84
2021/12/24 05:33:24;;;;;;;25.40;12.73;;;8.50;99.90;;;;;;5100528;28;20213;-85
2021/12/24 05:35:50;;;;;;;22.00;12.67;;;8.60;99.90;;;;;;5100580;28;20210;-84
2021/12/24 05:38:16;;;;;;;23.63;11.20;;;8.70;99.90;;;;;;5100213;28;20266;-84
2021/12/24 05:40:43;;;;;;;29.17;12.23;;;8.70;99.90;;;;;;5100147;28;20366;-85
2021/12/24 05:43:08;;;;;;;23.53;12.27;;;8.60;99.90;;;;;;5099938;28;20239;-85
2021/12/24 05:45:34;;;;;;;33.60;12.27;;;9.00;99.90;;;;;;5118654;28;20178;-85
2021/12/24 05:48:00;;;;;;;19.17;11.17;;;8.50;99.90;;;;;;5100600;28;20205;-85
2021/12/24 05:50:26;;;;;;;21.87;12.37;;;8.60;99.90;;;;;;5100894;28;20178;-86
2021/12/24 05:52:51;;;;;;;24.90;12.43;;;8.60;99.90;;;;;;5100404;28;20209;-85
2021/12/24 05:55:18;;;;;;;24.30;10.40;;;8.60;99.90;;;;;;5100174;28;20203;-84
2021/12/24 05:57:43;;;;;;;22.40;12.60;;;8.50;99.90;;;;;;5100724;28;20213;-85
2021/12/24 06:00:10;;;;;;;23.37;12.07;;;9.50;99.90;;;;;;5100789;28;20192;-84
2021/12/24 06:02:36;;;;;;;18.00;10.90;;;8.50;99.90;;;;;;5100043;28;20189;-83
2021/12/24 06:05:02;;;;;;;23.67;12.73;;;8.60;99.90;;;;;;5100950;28;20186;-86
2021/12/24 06:07:28;;;;;;;26.30;11.50;;;8.50;99.90;;;;;;5101267;28;20198;-85
2021/12/24 06:09:53;;;;;;;23.10;11.67;;;8.50;99.90;;;;;;5101444;28;20622;-82
2021/12/24 06:12:19;;;;;;;20.63;10.73;;;8.60;99.90;;;;;;5101211;28;20234;-84
2021/12/24 06:14:46;;;;;;;23.77;12.37;;;8.60;99.90;;;;;;5101129;28;20630;-84
2021/12/24 06:17:15;;;;;;;22.10;13.10;;;8.60;99.90;;;;;;5105706;28;20200;-86
2021/12/24 06:19:41;;;;;;;18.67;10.33;;;8.60;99.90;;;;;;5102594;28;20182;-85
2021/12/24 06:22:07;;;;;;;23.63;11.77;;;9.30;99.90;;;;;;5099638;28;20209;-84
2021/12/24 06:24:33;;;;;;;20.43;12.10;;;8.60;99.90;;;;;;5099263;28;20182;-86
2021/12/24 06:26:58;;;;;;;18.50;11.77;;;10.30;99.90;;;;;;5098970;28;20585;-83
2021/12/24 06:29:24;;;;;;;23.50;13.07;;;9.10;99.90;;;;;;5117465;28;20176;-85
2021/12/24 06:31:50;;;;;;;23.37;11.27;;;8.60;99.90;;;;;;5099368;28;20598;-84
2021/12/24 06:34:17;;;;;;;23.63;12.57;;;8.50;99.90;;;;;;5098794;28;20645;-84
2021/12/24 06:36:44;;;;;;;25.17;12.93;;;9.30;99.90;;;;;;5098581;28;20182;-84
2021/12/24 06:39:11;;;;;;;23.97;11.63;;;8.50;99.90;;;;;;5098742;28;20211;-85
2021/12/24 06:41:40;;;;;;;28.63;13.43;;;9.10;99.90;;;;;;5098901;28;20178;-84
2021/12/24 06:44:09;;;;;;;19.60;12.90;;;8.50;99.90;;;;;;5098908;28;20178;-85
2021/12/24 06:46:35;;;;;;;30.40;14.20;;;9.50;99.90;;;;;;5098968;28;20235;-86
2021/12/24 06:49:00;;;;;;;28.90;13.27;;;9.60;99.90;;;;;;5099130;28;20611;-84
2021/12/24 06:51:27;;;;;;;24.37;13.40;;;8.40;99.90;;;;;;5117324;28;20205;-84
2021/12/24 06:53:54;;;;;;;27.23;13.50;;;8.70;99.90;;;;;;5099148;27;20243;-84
2021/12/24 06:56:20;;;;;;;28.97;14.07;;;9.30;99.90;;;;;;5103010;28;20654;-85
2021/12/24 06:58:46;;;;;;;27.47;14.07;;;8.50;99.90;;;;;;5102726;28;20205;-86
2021/12/24 07:01:11;;;;;;;32.03;15.03;;;9.60;99.90;;;;;;5103270;28;20188;-84
2021/12/24 07:03:37;;;;;;;26.50;13.50;;;9.30;99.90;;;;;;5104514;28;20189;-85
2021/12/24 07:06:04;;;;;;;28.00;14.93;;;8.40;99.90;;;;;;5103292;28;20189;-84
2021/12/24 07:08:30;;;;;;;33.10;14.10;;;8.40;99.90;;;;;;5103845;28;20202;-84
2021/12/24 07:10:56;;;;;;;23.37;14.27;;;9.60;99.90;;;;;;5103356;28;20208;-85
2021/12/24 07:13:22;;;;;;;34.77;14.13;;;8.40;99.90;;;;;;5102386;28;20686;-85
2021/12/24 07:15:47;;;;;;;30.40;14.83;;;8.40;99.90;;;;;;5102485;28;20186;-84
2021/12/24 07:18:13;;;;;;;30.50;14.93;;;8.30;99.90;;;;;;5120728;28;20202;-85
2021/12/24 07:20:38;;;;;;;34.10;14.73;;;8.70;99.90;;;;;;5120675;28;20225;-84
2021/12/24 07:23:04;;;;;;;33.33;15.17;;;9.10;99.90;;;;;;5103022;28;20622;-84
2021/12/24 07:25:30;;;;;;;34.10;15.03;;;9.20;99.90;;;;;;5101756;28;20186;-85
2021/12/24 07:27:56;;;;;;;36.23;16.20;;;8.40;99.90;;;;;;5102106;28;20209;-85
2021/12/24 07:30:22;;;;;;;32.70;15.30;;;8.30;99.90;;;;;;5117621;28;20261;-87
2021/12/24 07:32:48;;;;;;;30.73;13.37;;;8.50;99.90;;;;;;5099091;28;20253;-85
2021/12/24 07:35:14;;;;;;;22.67;12.10;;;8.80;99.90;;;;;;5098880;28;20178;-85
2021/12/24 07:37:41;;;;;;;32.13;14.50;;;8.30;99.90;;;;;;5098600;28;20201;-87
2021/12/24 07:40:07;;;;;;;28.93;14.50;;;8.30;99.90;;;;;;5099146;28;20220;-85
2021/12/24 07:42:34;;;;;;;34.30;13.67;;;8.40;99.90;;;;;;5098876;28;20211;-86
2021/12/24 07:44:59;;;;;;;26.43;13.23;;;8.40;99.90;;;;;;5117219;28;20205;-86
2021/12/24 07:47:31;;;;;;;29.20;13.13;;;8.40;99.90;;;;;;5099053;28;20209;-86
2021/12/24 07:50:17;;;;;;;25.00;12.33;;;8.40;99.90;;;;;;5099135;28;20184;-88
2021/12/24 07:52:44;;;;;;;32.77;10.80;;;8.40;99.90;;;;;;5117814;28;20721;-88
2021/12/24 07:55:11;;;;;;;27.57;12.33;;;9.80;99.90;;;;;;5099275;28;20212;-88
2021/12/24 07:57:40;;;;;;;20.50;11.53;;;8.40;99.90;;;;;;5098564;28;20218;-87
2021/12/24 08:00:08;;;;;;;26.67;11.63;;;8.40;99.90;;;;;;5098945;28;20190;-87
2021/12/24 08:02:33;;;;;;;30.70;12.00;;;8.40;99.90;;;;;;5098619;28;20291;-87
2021/12/24 08:05:00;;;;;;;26.90;12.67;;;8.50;99.90;;;;;;5098790;28;20714;-84
2021/12/24 08:07:27;;;;;;;30.47;10.93;;;8.40;99.90;;;;;;5116642;28;20263;-87
2021/12/24 08:09:53;;;;;;;30.73;11.77;;;8.40;99.90;;;;;;5098449;28;20178;-87
2021/12/24 08:12:20;;;;;;;26.97;13.70;;;8.50;99.90;;;;;;5098401;28;20258;-85
2021/12/24 08:14:46;;;;;;;28.60;12.17;;;8.40;99.90;;;;;;5116779;28;20173;-87
2021/12/24 08:17:12;;;;;;;26.97;12.23;;;8.50;99.90;;;;;;5098335;28;20198;-87
2021/12/24 08:19:39;;;;;;;10.73;6.07;;;8.50;99.90;;;;;;5098482;28;20183;-85
2021/12/24 08:22:06;;;;;;;29.27;12.43;;;8.50;99.90;;;;;;5098403;28;20181;-84
2021/12/24 08:24:31;;;;;;;26.37;11.70;;;8.50;99.90;;;;;;5116705;28;20626;-86
2021/12/24 08:26:57;;;;;;;23.33;9.83;;;8.50;99.90;;;;;;5097951;28;20196;-87
2021/12/24 08:29:23;;;;;;;21.63;10.17;;;8.50;99.90;;;;;;5098075;28;20178;-88
2021/12/24 08:31:50;;;;;;;25.87;9.57;;;8.50;99.90;;;;;;5098040;28;20207;-88
2021/12/24 08:34:17;;;;;;;24.20;10.83;;;8.50;99.90;;;;;;5098040;28;20627;-88
2021/12/24 08:36:44;;;;;;;22.07;10.83;;;8.50;99.90;;;;;;5097869;28;20265;-88
2021/12/24 08:39:09;;;;;;;28.80;10.60;;;9.70;99.90;;;;;;5098155;28;20496;-88
2021/12/24 08:41:35;;;;;;;16.83;8.57;;;8.50;99.90;;;;;;5097857;28;20264;-87
2021/12/24 08:44:02;;;;;;;17.20;9.50;;;8.50;99.90;;;;;;5116348;28;20180;-88
2021/12/24 08:46:28;;;;;;;22.47;9.40;;;10.00;99.90;;;;;;5098071;28;20596;-89
2021/12/24 08:48:53;;;;;;;29.43;11.47;;;8.60;99.90;;;;;;5097895;28;20301;-86
2021/12/24 08:51:19;;;;;;;20.83;9.13;;;8.60;99.90;;;;;;5097871;28;20287;-86
2021/12/24 08:53:45;;;;;;;24.00;10.77;;;8.60;99.90;;;;;;5097725;28;20730;-86
2021/12/24 08:56:11;;;;;;;30.50;12.10;;;8.60;99.90;;;;;;5097706;28;20189;-87
2021/12/24 08:58:37;;;;;;;29.57;11.73;;;9.20;99.90;;;;;;5098041;28;20587;-86
2021/12/24 09:01:04;;;;;;;21.73;11.33;;;8.60;99.90;;;;;;5097761;28;20178;-87
2021/12/24 09:03:30;;;;;;;19.73;10.43;;;9.00;99.90;;;;;;5097605;28;20254;-87
2021/12/24 09:05:56;;;;;;;23.27;11.50;;;8.60;99.90;;;;;;5098379;28;20228;-90
2021/12/24 09:08:21;;;;;;;25.87;10.57;;;8.60;99.90;;;;;;5098398;28;20704;-87
2021/12/24 09:10:47;;;;;;;29.63;10.73;;;8.60;99.90;;;;;;5115393;28;20210;-87
2021/12/24 09:13:13;;;;;;;23.40;11.00;;;8.60;99.90;;;;;;5097134;28;20289;-87
2021/12/24 09:15:40;;;;;;;27.27;12.47;;;8.60;99.90;;;;;;5115220;28;20176;-85
2021/12/24 09:18:06;;;;;;;23.63;10.00;;;8.60;99.90;;;;;;5115054;28;20667;-86
2021/12/24 09:20:40;;;;;;;27.00;11.87;;;8.70;99.90;;;;;;5096917;28;20269;-88
2021/12/24 09:23:07;;;;;;;21.87;10.50;;;8.60;99.90;;;;;;5097011;28;20222;-88
2021/12/24 09:25:33;;;;;;;25.43;11.63;;;8.70;99.90;;;;;;5115158;28;20166;-87
2021/12/24 09:28:00;;;;;;;22.10;11.40;;;8.70;99.90;;;;;;5096828;28;20605;-88
2021/12/24 09:30:27;;;;;;;25.97;11.40;;;8.70;99.90;;;;;;5096785;28;20638;-87
2021/12/24 09:32:56;;;;;;;22.50;10.93;;;8.60;99.90;;;;;;5096771;28;20267;-89
2021/12/24 09:35:24;;;;;;;23.37;10.17;;;8.60;99.90;;;;;;5080166;28;20177;-87
2021/12/24 09:37:49;;;;;;;23.33;10.27;;;8.60;99.90;;;;;;5096625;28;20205;-87
2021/12/24 09:40:16;;;;;;;30.07;11.33;;;8.60;99.90;;;;;;5096768;28;20542;-87
2021/12/24 09:42:42;;;;;;;31.73;11.27;;;8.60;99.90;;;;;;5096639;28;20174;-87
2021/12/24 09:45:10;;;;;;;18.63;9.77;;;8.70;99.90;;;;;;5096815;28;20273;-86
2021/12/24 09:47:36;;;;;;;26.13;11.90;;;8.60;99.90;;;;;;5096587;28;20198;-87
2021/12/24 09:50:04;;;;;;;26.93;11.60;;;8.60;99.90;;;;;;5096603;28;20207;-87
2021/12/24 09:52:31;;;;;;;15.37;7.90;;;8.70;99.90;;;;;;5096725;28;20206;-88
2021/12/24 09:55:05;;;;;;;24.60;10.10;;;8.70;99.90;;;;;;5096692;28;20271;-88
2021/12/24 09:57:30;;;;;;;21.80;9.43;;;8.70;99.90;;;;;;5096272;28;20292;-86
2021/12/24 09:59:56;;;;;;;24.37;9.70;;;8.60;99.90;;;;;;5096397;28;20702;-87
2021/12/24 10:02:28;;;;;;;21.60;9.83;;;8.70;99.90;;;;;;5096348;28;20641;-88
2021/12/24 10:04:53;;;;;;;22.97;10.07;;;8.70;99.90;;;;;;5114819;28;20151;-86
2021/12/24 10:07:24;;;;;;;22.20;9.23;;;8.80;99.90;;;;;;5096390;28;20216;-88
2021/12/24 10:09:51;;;;;;;18.50;9.97;;;8.80;99.90;;;;;;5114492;28;20183;-87
2021/12/24 10:12:27;;;;;;;24.17;10.47;;;8.80;99.90;;;;;;5114690;28;20205;-87
2021/12/24 10:14:57;;;;;;;20.60;10.60;;;8.90;99.90;;;;;;5096259;28;20248;-86
2021/12/24 10:17:30;;;;;;;23.77;10.27;;;8.90;99.90;;;;;;5096065;28;20202;-87
2021/12/24 10:20:11;;;;;;;26.03;9.63;;;8.90;99.90;;;;;;5097168;28;20215;-86
2021/12/24 10:22:51;;;;;;;24.87;11.40;;;9.00;99.90;;;;;;5096307;28;20268;-88
2021/12/24 10:25:23;;;;;;;27.07;8.17;;;9.00;99.90;;;;;;5096183;28;20231;-87
2021/12/24 10:27:49;;;;;;;28.40;10.93;;;9.00;99.90;;;;;;5096196;28;20250;-86
2021/12/24 10:30:32;;;;;;;28.87;10.50;;;9.00;99.90;;;;;;5095226;28;20181;-87
2021/12/24 10:33:09;;;;;;;23.53;11.30;;;9.00;99.90;;;;;;5095780;28;20200;-87
2021/12/24 10:35:35;;;;;;;24.70;9.97;;;9.60;99.90;;;;;;5096218;28;20624;-87
2021/12/24 10:38:11;;;;;;;30.07;14.37;;;9.10;99.90;;;;;;5095821;28;20297;-87
2021/12/24 10:40:54;;;;;;;32.07;10.07;;;9.10;99.90;;;;;;5095315;28;20180;-85
2021/12/24 10:43:33;;;;;;;24.23;10.37;;;9.10;99.90;;;;;;5092579;28;20181;-87
2021/12/24 10:46:18;;;;;;;21.73;10.37;;;9.10;99.90;;;;;;5096263;28;20170;-86
2021/12/24 10:49:16;;;;;;;26.77;11.53;;;9.10;99.90;;;;;;5114144;28;20658;-87
2021/12/24 10:52:10;;;;;;;20.00;9.60;;;9.20;99.90;;;;;;5114362;28;20204;-87
2021/12/24 10:54:52;;;;;;;21.73;9.30;;;9.10;99.90;;;;;;5095977;28;20175;-87
2021/12/24 10:57:23;;;;;;;26.27;9.37;;;9.10;99.90;;;;;;5095631;28;20216;-87
2021/12/24 10:59:49;;;;;;;16.47;8.70;;;9.10;99.90;;;;;;5095863;28;20174;-87
2021/12/24 11:02:16;;;;;;;21.77;9.87;;;9.10;99.90;;;;;;5096638;28;20185;-86
2021/12/24 11:04:42;;;;;;;22.60;9.63;;;9.10;99.90;;;;;;5095749;28;20556;-86
2021/12/24 11:07:40;;;;;;;20.23;8.40;;;10.10;99.90;;;;;;5095825;28;20198;-86
2021/12/24 11:10:18;;;;;;;16.73;9.03;;;9.00;99.90;;;;;;5095582;28;20185;-85
2021/12/24 11:13:08;;;;;;;26.07;9.43;;;9.10;99.90;;;;;;5095711;28;20288;-86
2021/12/24 11:15:37;;;;;;;23.03;9.83;;;9.10;99.90;;;;;;5095627;28;20208;-84
2021/12/24 11:18:09;;;;;;;20.83;9.50;;;9.10;99.90;;;;;;5095588;28;20199;-87
2021/12/24 11:20:35;;;;;;;28.90;11.60;;;9.20;99.90;;;;;;5095534;28;20210;-84
2021/12/24 11:23:09;;;;;;;25.60;11.10;;;10.80;99.90;;;;;;5095744;28;20217;-86
2021/12/24 11:25:38;;;;;;;22.57;8.77;;;9.30;99.90;;;;;;5095602;28;20190;-88
2021/12/24 11:28:05;;;;;;;25.80;9.47;;;9.30;99.90;;;;;;5113735;28;20190;-88
2021/12/24 11:30:34;;;;;;;25.50;10.80;;;9.40;99.90;;;;;;5095674;28;20189;-87
2021/12/24 11:33:00;;;;;;;26.47;9.37;;;10.70;99.90;;;;;;5095574;28;20202;-87
2021/12/24 11:35:27;;;;;;;21.93;7.93;;;10.60;99.90;;;;;;5095468;28;20170;-88
2021/12/24 11:37:53;;;;;;;22.37;9.60;;;9.60;99.90;;;;;;5095457;28;20290;-87
2021/12/24 11:40:21;;;;;;;23.70;9.17;;;10.50;99.90;;;;;;5095899;28;20658;-88
2021/12/24 11:42:55;;;;;;;30.43;12.07;;;12.00;99.90;;;;;;5099156;28;20187;-87
2021/12/24 11:45:23;;;;;;;26.33;12.53;;;10.60;99.90;;;;;;5099440;28;20211;-87
2021/12/24 11:47:49;;;;;;;23.60;11.00;;;9.90;99.90;;;;;;5099293;28;20632;-87
2021/12/24 11:50:16;;;;;;;25.20;10.97;;;9.90;99.90;;;;;;5099325;28;20179;-87
2021/12/24 11:52:42;;;;;;;24.00;10.40;;;9.80;99.90;;;;;;5099101;28;20209;-86
2021/12/24 11:55:08;;;;;;;20.37;8.33;;;9.80;99.90;;;;;;5099473;28;20167;-85
2021/12/24 11:57:34;;;;;;;20.00;9.03;;;9.80;99.90;;;;;;5101134;28;20214;-86
2021/12/24 12:00:13;;;;;;;29.93;8.60;;;9.90;99.90;;;;;;5098594;28;20698;-88
2021/12/24 12:02:45;;;;;;;22.70;8.27;;;9.80;99.90;;;;;;5098437;28;20658;-86
2021/12/24 12:05:35;;;;;;;19.90;8.93;;;9.80;99.90;;;;;;5116787;28;20159;-85
2021/12/24 12:08:24;;;;;;;17.80;9.77;;;9.20;99.90;;;;;;5088978;28;20280;-87
2021/12/24 12:11:04;;;;;;;20.97;8.20;;;9.70;99.90;;;;;;5098374;28;20178;-87
2021/12/24 12:13:41;;;;;;;22.93;10.73;;;9.70;99.90;;;;;;5098368;28;20250;-86
2021/12/24 12:16:08;;;;;;;16.23;7.33;;;9.70;99.90;;;;;;5098344;28;20584;-86
2021/12/24 12:18:44;;;;;;;23.27;8.13;;;9.80;99.90;;;;;;5116374;28;20675;-86
2021/12/24 12:21:13;;;;;;;21.30;7.40;;;10.80;99.90;;;;;;5098248;28;20252;-86
2021/12/24 12:26:42;;;;;;;18.00;6.93;;;9.70;99.90;;;;;;5116913;28;20215;-85
2021/12/24 12:29:25;;;;;;;18.67;7.33;;;9.80;99.90;;;;;;5116361;28;20216;-87
2021/12/24 12:32:03;;;;;;;21.80;7.70;;;9.70;99.90;;;;;;5097913;28;20267;-86
2021/12/24 12:34:48;;;;;;;22.23;8.00;;;9.70;99.90;;;;;;5098156;28;20171;-87
2021/12/24 12:37:18;;;;;;;15.87;6.80;;;9.70;99.90;;;;;;5097864;28;20286;-87
2021/12/24 12:39:46;;;;;;;16.97;8.07;;;9.70;99.90;;;;;;5098118;28;20231;-87
2021/12/24 12:42:15;;;;;;;15.80;7.83;;;9.70;99.90;;;;;;5097949;28;20642;-87
2021/12/24 12:44:46;;;;;;;11.93;7.43;;;9.60;99.90;;;;;;5097672;28;20174;-86
2021/12/24 12:47:14;;;;;;;22.43;7.97;;;9.60;99.90;;;;;;5098691;28;20198;-87
2021/12/24 12:49:40;;;;;;;19.00;8.57;;;9.60;99.90;;;;;;5097816;28;20178;-87
2021/12/24 12:52:12;;;;;;;17.63;9.60;;;9.60;99.90;;;;;;5097053;28;20178;-87
2021/12/24 12:54:50;;;;;;;20.70;8.37;;;9.60;99.90;;;;;;5097828;28;20174;-87
2021/12/24 12:57:28;;;;;;;18.00;9.10;;;9.60;99.90;;;;;;5097755;28;20215;-87
2021/12/24 13:02:22;;;;;;;21.67;10.50;;;9.60;99.90;;;;;;5083224;28;20226;-47
2021/12/24 13:05:11;;;;;;;25.13;10.63;;;9.60;99.90;;;;;;5094987;28;20665;-49
2021/12/24 13:07:36;;;;;;;20.97;9.10;;;9.60;99.90;;;;;;5094813;28;20171;-47
2021/12/24 13:10:03;;;;;;;33.73;8.23;;;9.60;99.90;;;;;;5095018;28;20236;-48
2021/12/24 13:12:29;;;;;;;16.80;8.50;;;9.60;99.90;;;;;;5094707;28;20203;-46
2021/12/24 13:14:59;;;;;;;20.43;8.13;;;9.50;99.90;;;;;;5094875;28;20182;-41
2021/12/24 13:17:32;;;;;;;30.37;13.53;;;9.50;99.90;;;;;;5094407;28;20177;-43
2021/12/24 13:20:13;;;;;;;21.57;8.40;;;9.50;99.90;;;;;;5094586;28;20162;-44
2021/12/24 13:22:38;;;;;;;23.80;8.57;;;9.50;99.90;;;;;;5093510;28;20192;-44
2021/12/24 13:25:14;;;;;;;21.70;9.10;;;9.50;99.90;;;;;;5094650;28;20291;-45
2021/12/24 13:27:51;;;;;;;20.77;9.13;;;9.40;99.90;;;;;;5094502;28;20155;-43
2021/12/24 13:30:22;;;;;;;19.60;8.13;;;9.40;99.90;;;;;;5094625;28;20175;-43
2021/12/24 13:32:52;;;;;;;16.00;9.10;;;9.40;99.90;;;;;;5093859;28;20234;-44
2021/12/24 13:35:31;;;;;;;23.73;8.73;;;9.40;99.90;;;;;;5094286;28;20235;-42
2021/12/24 13:37:57;;;;;;;16.43;8.07;;;9.40;99.90;;;;;;5094386;28;20165;-43
2021/12/24 13:40:30;;;;;;;19.93;9.17;;;9.40;99.90;;;;;;5095814;28;20171;-42
2021/12/24 13:42:58;;;;;;;19.00;9.23;;;9.40;99.90;;;;;;5095681;28;20199;-46
2021/12/24 13:45:26;;;;;;;24.80;10.63;;;9.30;99.90;;;;;;5094406;28;20258;-43
2021/12/24 13:48:07;;;;;;;18.13;9.07;;;9.30;99.90;;;;;;5094412;28;20175;-43
2021/12/24 13:56:24;;;;;;;21.13;8.47;;;9.30;99.90;;;;;;5094401;28;20167;-44
2021/12/24 13:58:51;;;;;;;27.67;9.83;;;9.30;99.90;;;;;;5075741;28;20210;-43
2021/12/24 14:01:26;;;;;;;20.20;9.40;;;9.20;99.90;;;;;;5093481;28;20542;-43
2021/12/24 14:03:52;;;;;;;22.57;8.10;;;9.20;99.90;;;;;;5093984;28;20577;-44
2021/12/24 14:06:18;;;;;;;27.03;9.93;;;9.20;99.90;;;;;;5075599;28;20191;-43
2021/12/24 14:08:44;;;;;;;26.67;8.90;;;9.20;99.90;;;;;;5093913;28;20179;-42
2021/12/24 14:11:14;;;;;;;21.23;7.80;;;9.20;99.90;;;;;;5093808;28;20253;-44
2021/12/24 14:13:45;;;;;;;24.10;9.23;;;9.20;99.90;;;;;;5067256;28;20199;-44
2021/12/24 14:19:19;;;;;;;22.97;8.20;;;9.10;99.90;;;;;;5094514;28;20189;-43
2021/12/24 14:21:46;;;;;;;19.37;7.97;;;9.20;99.90;;;;;;5086314;28;20211;-42
2021/12/24 14:24:16;;;;;;;23.03;8.43;;;9.20;99.90;;;;;;5093674;28;20179;-43
2021/12/24 14:27:01;;;;;;;18.97;7.80;;;9.20;99.90;;;;;;5093733;28;20182;-42
2021/12/24 14:29:53;;;;;;;16.33;7.37;;;9.10;99.90;;;;;;5093725;28;20171;-42
2021/12/24 14:32:33;;;;;;;17.07;8.03;;;9.10;99.90;;;;;;5093476;28;20211;-44
2021/12/24 14:35:13;;;;;;;20.80;9.20;;;9.10;99.90;;;;;;5093622;28;20274;-43
2021/12/24 14:37:39;;;;;;;22.80;10.73;;;9.10;99.90;;;;;;5094231;28;20207;-41
2021/12/24 14:40:08;;;;;;;22.27;8.90;;;9.10;99.90;;;;;;5093680;28;20212;-41